createdAt,value
2018-07-11T00:01:47.596Z,14.30
2018-07-11T00:04:18.125Z,14.30
2018-07-11T00:06:48.432Z,14.30
2018-07-11T00:09:18.703Z,14.30
2018-07-11T00:11:49.195Z,14.30
2018-07-11T00:14:19.504Z,14.30
2018-07-11T00:16:54.899Z,14.30
2018-07-11T00:19:25.381Z,14.20
2018-07-11T00:21:55.731Z,14.20
2018-07-11T00:26:55.956Z,14.20
2018-07-11T00:29:26.400Z,14.20
2018-07-11T00:31:57.159Z,14.20
2018-07-11T00:34:27.475Z,14.20
2018-07-11T00:36:57.797Z,14.20
2018-07-11T00:39:28.187Z,14.10
2018-07-11T00:41:58.641Z,14.10
2018-07-11T00:46:59.121Z,14.10
2018-07-11T00:49:29.509Z,14.10
2018-07-11T00:52:00.013Z,14.10
2018-07-11T00:54:30.536Z,14.00
2018-07-11T00:57:01.834Z,14.00
2018-07-11T00:59:33.900Z,14.00
2018-07-11T01:02:07.758Z,14.00
2018-07-11T01:04:38.241Z,14.00
2018-07-11T01:07:08.705Z,14.00
2018-07-11T01:09:46.214Z,14.00
2018-07-11T01:12:16.625Z,13.90
2018-07-11T01:14:48.303Z,13.90
2018-07-11T01:17:23.937Z,13.90
2018-07-11T01:19:54.735Z,13.90
2018-07-11T01:22:24.940Z,13.90
2018-07-11T01:24:55.525Z,13.90
2018-07-11T01:27:25.899Z,13.90
2018-07-11T01:29:56.560Z,13.80
2018-07-11T01:32:26.814Z,13.90
2018-07-11T01:34:57.179Z,13.90
2018-07-11T01:37:27.488Z,13.80
2018-07-11T01:39:58.101Z,13.80
2018-07-11T01:42:28.421Z,13.80
2018-07-11T01:44:58.705Z,13.80
2018-07-11T01:47:29.073Z,13.80
2018-07-11T01:49:59.422Z,13.80
2018-07-11T01:53:01.119Z,13.80
2018-07-11T01:55:31.521Z,13.80
2018-07-11T01:58:02.257Z,13.80
2018-07-11T02:00:33.199Z,13.80
2018-07-11T02:03:03.576Z,13.80
2018-07-11T02:05:33.984Z,13.90
2018-07-11T02:08:04.644Z,13.90
2018-07-11T02:10:35.059Z,13.90
2018-07-11T02:13:05.418Z,13.90
2018-07-11T02:18:05.680Z,13.90
2018-07-11T02:20:36.051Z,13.90
2018-07-11T02:23:06.542Z,13.90
2018-07-11T02:25:37.042Z,13.90
2018-07-11T02:28:07.421Z,13.90
2018-07-11T02:30:38.302Z,13.90
2018-07-11T02:33:08.748Z,13.90
2018-07-11T02:35:39.280Z,13.90
2018-07-11T02:38:09.536Z,13.90
2018-07-11T02:40:39.965Z,13.90
2018-07-11T02:43:10.302Z,13.90
2018-07-11T02:45:40.617Z,13.90
2018-07-11T02:48:11.176Z,13.90
2018-07-11T02:50:41.578Z,13.80
2018-07-11T02:53:13.336Z,13.80
2018-07-11T02:55:43.582Z,13.80
2018-07-11T02:58:13.792Z,13.80
2018-07-11T03:00:44.078Z,13.80
2018-07-11T03:03:14.568Z,13.80
2018-07-11T03:05:44.886Z,13.70
2018-07-11T03:10:46.590Z,13.70
2018-07-11T03:13:21.001Z,13.70
2018-07-11T03:15:51.297Z,13.70
2018-07-11T03:18:23.419Z,13.60
2018-07-11T03:20:53.774Z,13.60
2018-07-11T03:23:24.266Z,13.60
2018-07-11T03:25:54.757Z,13.60
2018-07-11T03:28:25.071Z,13.60
2018-07-11T03:30:55.358Z,13.60
2018-07-11T03:33:25.620Z,13.60
2018-07-11T03:35:56.060Z,13.60
2018-07-11T03:38:26.437Z,13.60
2018-07-11T03:40:56.808Z,13.60
2018-07-11T03:43:27.071Z,13.60
2018-07-11T03:45:57.361Z,13.60
2018-07-11T03:48:27.648Z,13.50
2018-07-11T03:50:57.917Z,13.50
2018-07-11T03:53:28.119Z,13.50
2018-07-11T03:55:58.389Z,13.50
2018-07-11T03:58:28.650Z,13.50
2018-07-11T04:00:58.961Z,13.50
2018-07-11T04:03:29.257Z,13.50
2018-07-11T04:05:59.491Z,13.50
2018-07-11T04:08:29.721Z,13.50
2018-07-11T04:10:59.903Z,13.40
2018-07-11T04:13:30.145Z,13.40
2018-07-11T04:18:31.098Z,13.40
2018-07-11T04:21:02.438Z,13.40
2018-07-11T04:23:32.783Z,13.40
2018-07-11T04:26:03.720Z,13.30
2018-07-11T04:28:34.203Z,13.30
2018-07-11T04:31:04.764Z,13.30
2018-07-11T04:33:35.161Z,13.30
2018-07-11T04:36:05.646Z,13.30
2018-07-11T04:38:36.015Z,13.30
2018-07-11T04:41:06.283Z,13.30
2018-07-11T04:43:36.620Z,13.40
2018-07-11T04:46:07.637Z,13.40
2018-07-11T04:48:37.960Z,13.40
2018-07-11T04:51:14.701Z,13.40
2018-07-11T04:53:46.299Z,13.40
2018-07-11T04:56:16.959Z,13.40
2018-07-11T04:58:47.445Z,13.50
2018-07-11T05:01:17.778Z,13.50
2018-07-11T05:03:48.168Z,13.60
2018-07-11T05:06:18.435Z,13.60
2018-07-11T05:08:48.649Z,13.70
2018-07-11T05:11:18.879Z,13.70
2018-07-11T05:13:49.101Z,13.70
2018-07-11T05:16:19.387Z,13.70
2018-07-11T05:18:49.662Z,13.80
2018-07-11T05:21:19.880Z,13.80
2018-07-11T05:23:50.142Z,13.80
2018-07-11T05:26:20.431Z,13.80
2018-07-11T05:28:50.725Z,13.80
2018-07-11T05:31:21.042Z,13.80
2018-07-11T05:33:51.285Z,13.90
2018-07-11T05:36:21.675Z,13.90
2018-07-11T05:38:51.837Z,13.90
2018-07-11T05:41:22.097Z,14.00
2018-07-11T05:43:52.413Z,14.10
2018-07-11T05:48:52.600Z,14.30
2018-07-11T05:51:22.896Z,14.40
2018-07-11T05:53:53.239Z,14.60
2018-07-11T06:01:23.130Z,15.10
2018-07-11T06:03:53.344Z,15.30
2018-07-11T06:06:23.618Z,15.50
2018-07-11T06:08:53.878Z,15.70
2018-07-11T06:11:25.257Z,15.90
2018-07-11T06:13:55.515Z,16.10
2018-07-11T06:16:25.820Z,16.20
2018-07-11T06:18:56.025Z,16.40
2018-07-11T06:21:27.123Z,16.50
2018-07-11T06:26:27.422Z,16.70
2018-07-11T06:28:57.644Z,16.70
2018-07-11T06:31:27.996Z,16.70
2018-07-11T06:33:58.290Z,16.70
2018-07-11T06:36:28.590Z,16.70
2018-07-11T06:38:58.810Z,16.80
2018-07-11T06:41:29.082Z,16.80
2018-07-11T06:43:59.363Z,16.80
2018-07-11T06:46:29.662Z,16.80
2018-07-11T06:48:59.882Z,16.80
2018-07-11T06:51:30.160Z,16.70
2018-07-11T06:54:00.453Z,16.80
2018-07-11T06:56:30.735Z,16.80
2018-07-11T06:59:01.079Z,16.80
2018-07-11T07:01:31.395Z,16.80
2018-07-11T07:04:01.702Z,16.80
2018-07-11T07:06:31.999Z,16.80
2018-07-11T07:09:02.349Z,16.80
2018-07-11T07:11:32.497Z,16.80
2018-07-11T07:14:02.822Z,16.80
2018-07-11T07:16:33.110Z,16.90
2018-07-11T07:19:03.399Z,16.80
2018-07-11T07:21:33.882Z,16.90
2018-07-11T07:24:04.296Z,17.00
2018-07-11T07:26:34.628Z,17.00
2018-07-11T07:29:05.071Z,17.00
2018-07-11T07:31:35.377Z,17.10
2018-07-11T07:34:05.709Z,17.20
2018-07-11T07:36:36.020Z,17.20
2018-07-11T07:39:06.742Z,17.30
2018-07-11T07:41:37.018Z,17.40
2018-07-11T07:44:13.533Z,17.50
2018-07-11T07:47:03.418Z,17.60
2018-07-11T07:49:34.041Z,17.70
2018-07-11T07:52:04.449Z,17.80
2018-07-11T07:54:34.931Z,17.90
2018-07-11T07:57:05.439Z,18.00
2018-07-11T07:59:35.846Z,18.00
2018-07-11T08:02:06.199Z,18.10
2018-07-11T08:04:36.458Z,18.20
2018-07-11T08:07:06.810Z,18.30
2018-07-11T08:09:36.978Z,18.30
2018-07-11T08:12:07.350Z,18.40
2018-07-11T08:14:37.671Z,18.50
2018-07-11T08:17:08.028Z,18.60
2018-07-11T08:19:38.300Z,18.70
2018-07-11T08:25:05.637Z,18.70
2018-07-11T08:27:56.083Z,18.80
2018-07-11T08:30:46.224Z,18.80
2018-07-11T08:35:59.620Z,18.90
2018-07-11T08:38:44.919Z,18.90
2018-07-11T08:42:33.043Z,19.00
2018-07-11T08:46:35.862Z,19.10
2018-07-11T08:49:22.548Z,19.10
2018-07-11T08:52:26.116Z,19.20
2018-07-11T08:55:24.822Z,19.20
2018-07-11T09:00:24.860Z,19.30
2018-07-11T09:04:32.376Z,19.30
2018-07-11T09:08:21.181Z,19.40
2018-07-11T09:13:11.090Z,19.50
2018-07-11T09:16:10.108Z,19.50
2018-07-11T09:19:35.328Z,19.60
2018-07-11T09:22:56.782Z,19.60
2018-07-11T09:25:27.122Z,19.60
2018-07-11T09:27:57.399Z,19.70
2018-07-11T09:30:27.681Z,19.70
2018-07-11T09:32:58.155Z,19.70
2018-07-11T09:35:28.489Z,19.80
2018-07-11T09:37:58.867Z,19.80
2018-07-11T09:40:29.097Z,19.90
2018-07-11T09:42:59.538Z,19.90
2018-07-11T09:45:29.924Z,19.90
2018-07-11T09:48:00.321Z,20.00
2018-07-11T09:50:30.665Z,20.00
2018-07-11T09:53:01.140Z,20.00
2018-07-11T09:55:31.626Z,20.00
2018-07-11T09:58:02.132Z,20.00
2018-07-11T10:00:37.504Z,19.90
2018-07-11T10:03:08.174Z,20.00
2018-07-11T10:05:38.593Z,20.00
2018-07-11T10:08:10.738Z,20.00
2018-07-11T10:10:40.902Z,20.10
2018-07-11T10:13:11.220Z,20.10
2018-07-11T10:15:41.860Z,20.20
2018-07-11T10:18:12.192Z,20.20
2018-07-11T10:23:12.461Z,20.30
2018-07-11T10:25:43.500Z,20.40
2018-07-11T10:28:21.236Z,20.50
2018-07-11T10:30:51.503Z,20.50
2018-07-11T10:33:21.731Z,20.60
2018-07-11T10:35:52.074Z,20.60
2018-07-11T10:38:22.368Z,20.60
2018-07-11T10:40:52.617Z,20.60
2018-07-11T10:43:23.042Z,20.60
2018-07-11T10:45:53.481Z,20.60
2018-07-11T10:48:23.794Z,20.60
2018-07-11T10:50:54.070Z,20.70
2018-07-11T10:53:24.459Z,20.70
2018-07-11T10:55:55.018Z,20.70
2018-07-11T10:58:25.425Z,20.70
2018-07-11T11:01:05.701Z,20.80
2018-07-11T11:03:32.646Z,20.80
2018-07-11T11:06:03.071Z,20.80
2018-07-11T11:08:33.389Z,20.80
2018-07-11T11:11:03.678Z,20.80
2018-07-11T11:13:33.992Z,20.80
2018-07-11T11:16:04.282Z,20.80
2018-07-11T11:18:34.611Z,20.80
2018-07-11T11:21:05.102Z,20.80
2018-07-11T11:23:35.467Z,20.80
2018-07-11T11:26:05.810Z,20.70
2018-07-11T11:28:36.187Z,20.70
2018-07-11T11:31:06.739Z,20.70
2018-07-11T11:33:37.082Z,20.70
2018-07-11T11:36:07.422Z,20.70
2018-07-11T11:38:37.698Z,20.70
2018-07-11T11:41:08.135Z,20.70
2018-07-11T11:43:38.542Z,20.70
2018-07-11T11:46:08.910Z,20.60
2018-07-11T11:48:39.237Z,20.60
2018-07-11T11:51:09.558Z,20.50
2018-07-11T11:53:39.982Z,20.40
2018-07-11T11:56:10.300Z,20.30
2018-07-11T11:58:40.784Z,20.20
2018-07-11T12:01:11.119Z,20.10
2018-07-11T12:03:41.459Z,20.00
2018-07-11T12:06:11.804Z,20.00
2018-07-11T12:08:42.163Z,19.90
2018-07-11T12:11:12.487Z,19.90
2018-07-11T12:13:42.862Z,19.90
2018-07-11T12:16:13.163Z,19.80
2018-07-11T12:18:43.385Z,19.80
2018-07-11T12:21:13.856Z,19.80
2018-07-11T12:23:44.216Z,19.80
2018-07-11T12:26:14.658Z,19.80
2018-07-11T12:28:44.980Z,19.90
2018-07-11T12:31:15.256Z,19.90
2018-07-11T12:33:45.802Z,19.90
2018-07-11T12:36:16.078Z,19.90
2018-07-11T12:38:47.377Z,19.90
2018-07-11T12:41:17.852Z,19.90
2018-07-11T12:43:48.402Z,20.00
2018-07-11T12:46:18.849Z,20.00
2018-07-11T12:48:54.275Z,20.00
2018-07-11T12:51:24.633Z,20.00
2018-07-11T12:53:55.007Z,20.00
2018-07-11T12:56:26.021Z,20.00
2018-07-11T12:58:56.952Z,20.00
2018-07-11T13:01:28.432Z,20.10
2018-07-11T13:03:59.561Z,20.10
2018-07-11T13:06:31.001Z,20.10
2018-07-11T13:09:01.360Z,20.10
2018-07-11T13:11:31.675Z,20.10
2018-07-11T13:14:02.098Z,20.10
2018-07-11T13:16:32.469Z,20.10
2018-07-11T13:19:02.869Z,20.10
2018-07-11T13:21:33.240Z,20.10
2018-07-11T13:24:03.637Z,20.10
2018-07-11T13:26:33.849Z,20.10
2018-07-11T13:29:04.297Z,20.00
2018-07-11T13:31:34.612Z,19.90
2018-07-11T13:34:05.109Z,19.80
2018-07-11T13:36:35.546Z,19.70
2018-07-11T13:39:07.175Z,19.70
2018-07-11T13:41:37.462Z,19.60
2018-07-11T13:44:07.714Z,19.50
2018-07-11T13:46:38.000Z,19.50
2018-07-11T13:49:08.417Z,19.50
2018-07-11T13:51:38.667Z,19.40
2018-07-11T13:54:09.067Z,19.40
2018-07-11T13:56:39.493Z,19.30
2018-07-11T13:59:10.048Z,19.30
2018-07-11T14:04:10.158Z,19.20
2018-07-11T14:06:41.042Z,19.10
2018-07-11T14:09:11.462Z,19.10
2018-07-11T14:11:41.848Z,19.10
2018-07-11T14:14:12.473Z,19.10
2018-07-11T14:16:42.974Z,19.00
2018-07-11T14:19:13.210Z,19.00
2018-07-11T14:21:43.653Z,19.00
2018-07-11T14:24:14.938Z,18.90
2018-07-11T14:26:45.808Z,18.90
2018-07-11T14:29:16.362Z,18.80
2018-07-11T14:31:46.865Z,18.60
2018-07-11T14:34:17.299Z,18.50
2018-07-11T14:36:47.601Z,18.50
2018-07-11T14:39:17.961Z,18.50
2018-07-11T14:41:48.270Z,18.60
2018-07-11T14:44:19.219Z,18.60
2018-07-11T14:46:49.671Z,18.70
2018-07-11T14:49:24.290Z,18.80
2018-07-11T14:51:55.002Z,18.90
2018-07-11T14:54:25.460Z,19.10
2018-07-11T14:56:55.924Z,19.20
2018-07-11T14:59:26.551Z,19.20
2018-07-11T15:01:56.878Z,19.30
2018-07-11T15:04:27.219Z,19.30
2018-07-11T15:06:57.725Z,19.40
2018-07-11T15:09:28.400Z,19.40
2018-07-11T15:11:58.839Z,19.50
2018-07-11T15:14:29.344Z,19.50
2018-07-11T15:16:59.797Z,19.60
2018-07-11T15:19:30.261Z,19.60
2018-07-11T15:22:00.860Z,19.60
2018-07-11T15:24:31.331Z,19.70
2018-07-11T15:27:01.739Z,19.60
2018-07-11T15:29:32.187Z,19.70
2018-07-11T15:32:02.794Z,19.70
2018-07-11T15:34:33.306Z,19.70
2018-07-11T15:37:03.578Z,19.70
2018-07-11T15:39:33.873Z,19.70
2018-07-11T15:42:05.875Z,19.70
2018-07-11T15:44:36.386Z,19.70
2018-07-11T15:49:36.776Z,19.70
2018-07-11T15:52:07.194Z,19.70
2018-07-11T15:54:38.616Z,19.70
2018-07-11T15:57:09.002Z,19.70
2018-07-11T15:59:49.507Z,19.70
2018-07-11T16:02:19.913Z,19.70
2018-07-11T16:04:51.207Z,19.70
2018-07-11T16:07:21.831Z,19.70
2018-07-11T16:09:58.641Z,19.70
2018-07-11T16:12:29.047Z,19.80
2018-07-11T16:14:59.385Z,19.80
2018-07-11T16:17:52.636Z,19.80
2018-07-11T16:20:32.418Z,19.80
2018-07-11T16:23:10.581Z,19.80
2018-07-11T16:25:44.966Z,19.80
2018-07-11T16:28:15.493Z,19.90
2018-07-11T16:30:46.079Z,19.90
2018-07-11T16:33:16.419Z,19.90
2018-07-11T16:35:46.902Z,19.90
2018-07-11T16:38:17.320Z,19.90
2018-07-11T16:40:47.736Z,19.90
2018-07-11T16:43:18.140Z,19.90
2018-07-11T16:45:48.613Z,19.90
2018-07-11T16:48:19.082Z,20.00
2018-07-11T16:50:49.560Z,20.00
2018-07-11T16:53:20.281Z,20.00
2018-07-11T16:55:51.582Z,20.00
2018-07-11T16:58:48.107Z,20.10
2018-07-11T17:01:18.617Z,20.20
2018-07-11T17:03:49.129Z,20.20
2018-07-11T17:06:19.856Z,20.30
2018-07-11T17:08:53.010Z,20.30
2018-07-11T17:11:27.913Z,20.40
2018-07-11T17:14:02.066Z,20.40
2018-07-11T17:17:05.268Z,20.40
2018-07-11T17:19:57.962Z,20.50
2018-07-11T17:22:35.264Z,20.50
2018-07-11T17:25:07.132Z,20.50
2018-07-11T17:27:37.567Z,20.50
2018-07-11T17:30:08.024Z,20.50
2018-07-11T17:32:38.564Z,20.50
2018-07-11T17:35:09.082Z,20.40
2018-07-11T17:37:40.386Z,20.40
2018-07-11T17:40:21.688Z,20.30
2018-07-11T17:43:17.041Z,20.30
2018-07-11T17:45:51.524Z,20.30
2018-07-11T17:48:43.221Z,20.20
2018-07-11T17:51:42.111Z,20.20
2018-07-11T17:54:13.849Z,20.20
2018-07-11T17:56:54.138Z,20.10
2018-07-11T17:59:36.223Z,20.10
2018-07-11T18:03:19.592Z,20.10
2018-07-11T18:06:05.105Z,20.00
2018-07-11T18:08:53.890Z,19.90
2018-07-11T18:11:30.504Z,19.90
2018-07-11T18:14:00.997Z,19.80
2018-07-11T18:16:57.731Z,19.80
2018-07-11T18:24:02.780Z,19.80
2018-07-11T18:26:53.043Z,19.70
2018-07-11T18:31:57.107Z,19.60
2018-07-11T18:37:53.329Z,19.60
2018-07-11T18:41:19.721Z,19.50
2018-07-11T18:48:54.885Z,19.50
2018-07-11T18:51:56.754Z,19.40
2018-07-11T18:54:56.718Z,19.30
2018-07-11T18:58:44.324Z,19.40
2018-07-11T19:01:58.589Z,19.30
2018-07-11T19:04:59.339Z,19.30
2018-07-11T19:07:42.862Z,19.20
2018-07-11T19:10:22.082Z,19.20
2018-07-11T19:12:59.609Z,19.20
2018-07-11T19:16:05.934Z,19.20
2018-07-11T19:18:50.811Z,19.20
2018-07-11T19:22:03.129Z,19.20
2018-07-11T19:26:56.841Z,19.20
2018-07-11T19:31:55.968Z,19.10
2018-07-11T19:35:36.328Z,19.10
2018-07-11T19:38:25.600Z,19.00
2018-07-11T19:41:25.462Z,19.00
2018-07-11T19:44:12.582Z,19.00
2018-07-11T19:46:57.318Z,18.90
2018-07-11T19:49:48.049Z,18.90
2018-07-11T19:52:39.540Z,18.90
2018-07-11T19:57:17.404Z,18.80
2018-07-11T19:59:49.792Z,18.80
2018-07-11T20:02:21.165Z,18.80
2018-07-11T20:07:26.714Z,18.80
2018-07-11T20:09:57.918Z,18.80
2018-07-11T20:12:28.927Z,18.80
2018-07-11T20:16:15.590Z,18.80
2018-07-11T20:18:45.935Z,18.80
2018-07-11T20:21:16.359Z,18.70
2018-07-11T20:23:46.880Z,18.70
2018-07-11T20:26:17.714Z,18.70
2018-07-11T20:28:48.031Z,18.70
2018-07-11T20:31:18.406Z,18.70
2018-07-11T20:33:48.751Z,18.70
2018-07-11T20:36:19.122Z,18.70
2018-07-11T20:38:49.451Z,18.60
2018-07-11T20:41:19.987Z,18.70
2018-07-11T20:43:50.479Z,18.70
2018-07-11T20:46:20.892Z,18.60
2018-07-11T20:48:54.471Z,18.60
2018-07-11T20:53:57.316Z,18.60
2018-07-11T20:56:27.648Z,18.60
2018-07-11T20:59:14.345Z,18.60
2018-07-11T21:02:02.740Z,18.60
2018-07-11T21:07:09.640Z,18.60
2018-07-11T21:10:01.080Z,18.50
2018-07-11T21:12:49.112Z,18.50
2018-07-11T21:17:43.721Z,18.50
2018-07-11T21:20:14.018Z,18.50
2018-07-11T21:22:44.405Z,18.50
2018-07-11T21:25:14.677Z,18.50
2018-07-11T21:27:44.937Z,18.50
2018-07-11T21:30:15.249Z,18.50
2018-07-11T21:32:45.578Z,18.50
2018-07-11T21:35:15.928Z,18.50
2018-07-11T21:37:46.301Z,18.50
2018-07-11T21:40:16.633Z,18.50
2018-07-11T21:42:46.905Z,18.50
2018-07-11T21:45:17.207Z,18.50
2018-07-11T21:47:47.546Z,18.50
2018-07-11T21:50:17.836Z,18.50
2018-07-11T21:52:48.181Z,18.50
2018-07-11T21:55:18.418Z,18.50
2018-07-11T21:57:48.678Z,18.50
2018-07-11T22:00:36.558Z,18.50
2018-07-11T22:03:08.222Z,18.50
2018-07-11T22:05:38.678Z,18.50
2018-07-11T22:08:09.740Z,18.50
2018-07-11T22:10:40.768Z,18.50
2018-07-11T22:13:10.929Z,18.50
2018-07-11T22:15:41.222Z,18.50
2018-07-11T22:18:27.869Z,18.50
2018-07-11T22:20:55.938Z,18.50
2018-07-11T22:23:24.090Z,18.50
2018-07-11T22:25:52.156Z,18.50
2018-07-11T22:28:20.245Z,18.50
2018-07-11T22:30:48.338Z,18.50
2018-07-11T22:33:16.398Z,18.50
2018-07-11T22:35:44.441Z,18.50
2018-07-11T22:38:13.001Z,18.50
2018-07-11T22:40:41.498Z,18.50
2018-07-11T22:43:09.594Z,18.50
2018-07-11T22:45:37.683Z,18.50
2018-07-11T22:50:34.099Z,18.50
2018-07-11T22:53:02.182Z,18.50
2018-07-11T22:55:30.362Z,18.50
2018-07-11T22:57:58.441Z,18.50
2018-07-11T23:00:26.577Z,18.50
2018-07-11T23:02:54.636Z,18.50
2018-07-11T23:05:22.729Z,18.40
2018-07-11T23:07:50.801Z,18.40
2018-07-11T23:10:18.849Z,18.40
2018-07-11T23:12:46.961Z,18.40
2018-07-11T23:15:15.068Z,18.40
2018-07-11T23:17:43.125Z,18.30
2018-07-11T23:20:11.221Z,18.30
2018-07-11T23:22:39.310Z,18.30
2018-07-11T23:25:07.442Z,18.30
2018-07-11T23:27:35.538Z,18.30
2018-07-11T23:30:03.624Z,18.30
2018-07-11T23:32:31.802Z,18.30
2018-07-11T23:34:59.996Z,18.30
2018-07-11T23:37:28.171Z,18.30
2018-07-11T23:39:56.393Z,18.30
2018-07-11T23:42:24.602Z,18.20
2018-07-11T23:44:52.715Z,18.20
2018-07-11T23:47:20.902Z,18.20
2018-07-11T23:49:49.142Z,18.20
2018-07-11T23:52:17.329Z,18.10
2018-07-11T23:54:45.534Z,18.10
2018-07-11T23:59:42.141Z,18.00
